sensor_id;sensor_type;location;lat;lon;timestamp;P1;durP1;ratioP1;P2;durP2;ratioP2
41263;SDS011;26998;48.714;9.414;2023-08-08T00:01:55;5.65;;;3.50;;
41263;SDS011;26998;48.714;9.414;2023-08-08T00:04:22;4.88;;;2.45;;
41263;SDS011;26998;48.714;9.414;2023-08-08T00:06:51;3.65;;;2.63;;
41263;SDS011;26998;48.714;9.414;2023-08-08T00:09:19;5.57;;;2.55;;
41263;SDS011;26998;48.714;9.414;2023-08-08T00:11:46;4.63;;;3.03;;
41263;SDS011;26998;48.714;9.414;2023-08-08T00:14:12;3.50;;;2.60;;
41263;SDS011;26998;48.714;9.414;2023-08-08T00:16:39;4.38;;;2.58;;
41263;SDS011;26998;48.714;9.414;2023-08-08T00:19:05;5.10;;;2.58;;
41263;SDS011;26998;48.714;9.414;2023-08-08T00:21:32;5.13;;;2.97;;
41263;SDS011;26998;48.714;9.414;2023-08-08T00:24:05;3.65;;;2.95;;
41263;SDS011;26998;48.714;9.414;2023-08-08T00:26:31;5.63;;;2.55;;
41263;SDS011;26998;48.714;9.414;2023-08-08T00:28:58;4.88;;;2.67;;
41263;SDS011;26998;48.714;9.414;2023-08-08T00:31:24;3.92;;;2.58;;
41263;SDS011;26998;48.714;9.414;2023-08-08T00:33:51;4.80;;;2.58;;
41263;SDS011;26998;48.714;9.414;2023-08-08T00:36:17;4.40;;;2.40;;
41263;SDS011;26998;48.714;9.414;2023-08-08T00:38:45;4.22;;;2.35;;
41263;SDS011;26998;48.714;9.414;2023-08-08T00:41:12;5.10;;;2.53;;
41263;SDS011;26998;48.714;9.414;2023-08-08T00:43:39;3.83;;;2.42;;
41263;SDS011;26998;48.714;9.414;2023-08-08T00:46:05;5.32;;;2.47;;
41263;SDS011;26998;48.714;9.414;2023-08-08T00:48:32;4.43;;;2.85;;
41263;SDS011;26998;48.714;9.414;2023-08-08T00:51:02;4.32;;;2.83;;
41263;SDS011;26998;48.714;9.414;2023-08-08T00:53:29;4.30;;;2.40;;
41263;SDS011;26998;48.714;9.414;2023-08-08T00:55:56;3.47;;;2.20;;
41263;SDS011;26998;48.714;9.414;2023-08-08T00:58:22;3.00;;;2.65;;
41263;SDS011;26998;48.714;9.414;2023-08-08T01:00:49;3.90;;;2.47;;
41263;SDS011;26998;48.714;9.414;2023-08-08T01:03:18;3.30;;;2.60;;
41263;SDS011;26998;48.714;9.414;2023-08-08T01:05:51;4.13;;;2.75;;
41263;SDS011;26998;48.714;9.414;2023-08-08T01:08:25;4.78;;;2.75;;
41263;SDS011;26998;48.714;9.414;2023-08-08T01:10:59;5.50;;;2.75;;
41263;SDS011;26998;48.714;9.414;2023-08-08T01:13:26;4.18;;;3.05;;
41263;SDS011;26998;48.714;9.414;2023-08-08T01:15:57;4.85;;;2.50;;
41263;SDS011;26998;48.714;9.414;2023-08-08T01:18:23;4.32;;;2.83;;
41263;SDS011;26998;48.714;9.414;2023-08-08T01:20:51;5.93;;;2.60;;
41263;SDS011;26998;48.714;9.414;2023-08-08T01:23:19;4.07;;;2.63;;
41263;SDS011;26998;48.714;9.414;2023-08-08T01:26:07;4.40;;;2.70;;
41263;SDS011;26998;48.714;9.414;2023-08-08T01:28:34;4.60;;;2.47;;
41263;SDS011;26998;48.714;9.414;2023-08-08T01:31:01;4.43;;;3.33;;
41263;SDS011;26998;48.714;9.414;2023-08-08T01:33:29;5.63;;;2.60;;
41263;SDS011;26998;48.714;9.414;2023-08-08T01:35:58;2.85;;;2.25;;
41263;SDS011;26998;48.714;9.414;2023-08-08T01:38:31;4.18;;;2.88;;
41263;SDS011;26998;48.714;9.414;2023-08-08T01:41:03;3.63;;;2.72;;
41263;SDS011;26998;48.714;9.414;2023-08-08T01:43:32;3.38;;;2.63;;
41263;SDS011;26998;48.714;9.414;2023-08-08T01:46:00;6.90;;;3.00;;
41263;SDS011;26998;48.714;9.414;2023-08-08T01:48:28;6.53;;;2.55;;
41263;SDS011;26998;48.714;9.414;2023-08-08T01:50:55;4.03;;;2.50;;
41263;SDS011;26998;48.714;9.414;2023-08-08T01:53:21;4.38;;;2.60;;
41263;SDS011;26998;48.714;9.414;2023-08-08T01:55:48;5.25;;;2.50;;
41263;SDS011;26998;48.714;9.414;2023-08-08T01:58:14;4.20;;;2.38;;
41263;SDS011;26998;48.714;9.414;2023-08-08T02:00:41;3.03;;;2.38;;
41263;SDS011;26998;48.714;9.414;2023-08-08T02:03:07;4.88;;;2.45;;
41263;SDS011;26998;48.714;9.414;2023-08-08T02:05:34;4.22;;;2.00;;
41263;SDS011;26998;48.714;9.414;2023-08-08T02:08:08;5.75;;;2.40;;
41263;SDS011;26998;48.714;9.414;2023-08-08T02:10:35;3.90;;;2.45;;
41263;SDS011;26998;48.714;9.414;2023-08-08T02:13:03;3.63;;;2.38;;
41263;SDS011;26998;48.714;9.414;2023-08-08T02:15:31;3.85;;;2.97;;
41263;SDS011;26998;48.714;9.414;2023-08-08T02:18:00;4.53;;;2.37;;
41263;SDS011;26998;48.714;9.414;2023-08-08T02:20:28;3.72;;;2.03;;
41263;SDS011;26998;48.714;9.414;2023-08-08T02:22:55;5.35;;;2.65;;
41263;SDS011;26998;48.714;9.414;2023-08-08T02:25:21;4.15;;;2.20;;
41263;SDS011;26998;48.714;9.414;2023-08-08T02:27:50;3.35;;;2.28;;
41263;SDS011;26998;48.714;9.414;2023-08-08T02:30:17;2.97;;;2.33;;
41263;SDS011;26998;48.714;9.414;2023-08-08T02:32:44;3.20;;;2.78;;
41263;SDS011;26998;48.714;9.414;2023-08-08T02:35:11;5.88;;;2.38;;
41263;SDS011;26998;48.714;9.414;2023-08-08T02:37:42;6.05;;;2.85;;
41263;SDS011;26998;48.714;9.414;2023-08-08T02:40:09;4.07;;;2.22;;
41263;SDS011;26998;48.714;9.414;2023-08-08T02:42:39;3.35;;;2.17;;
41263;SDS011;26998;48.714;9.414;2023-08-08T02:45:08;4.80;;;2.28;;
41263;SDS011;26998;48.714;9.414;2023-08-08T02:47:34;4.47;;;2.42;;
41263;SDS011;26998;48.714;9.414;2023-08-08T02:50:04;3.22;;;2.30;;
41263;SDS011;26998;48.714;9.414;2023-08-08T02:52:31;2.47;;;2.13;;
41263;SDS011;26998;48.714;9.414;2023-08-08T02:54:57;4.40;;;2.17;;
41263;SDS011;26998;48.714;9.414;2023-08-08T02:57:24;3.65;;;1.98;;
41263;SDS011;26998;48.714;9.414;2023-08-08T02:59:51;2.63;;;2.28;;
41263;SDS011;26998;48.714;9.414;2023-08-08T03:02:17;8.13;;;2.60;;
41263;SDS011;26998;48.714;9.414;2023-08-08T03:04:44;3.42;;;2.40;;
41263;SDS011;26998;48.714;9.414;2023-08-08T03:07:10;3.75;;;2.60;;
41263;SDS011;26998;48.714;9.414;2023-08-08T03:09:37;2.53;;;2.00;;
41263;SDS011;26998;48.714;9.414;2023-08-08T03:12:08;4.38;;;2.63;;
41263;SDS011;26998;48.714;9.414;2023-08-08T03:14:38;2.55;;;2.35;;
41263;SDS011;26998;48.714;9.414;2023-08-08T03:17:06;2.80;;;2.10;;
41263;SDS011;26998;48.714;9.414;2023-08-08T03:19:34;2.30;;;1.70;;
41263;SDS011;26998;48.714;9.414;2023-08-08T03:22:01;2.88;;;2.20;;
41263;SDS011;26998;48.714;9.414;2023-08-08T03:24:28;3.05;;;1.98;;
41263;SDS011;26998;48.714;9.414;2023-08-08T03:26:55;3.45;;;2.55;;
41263;SDS011;26998;48.714;9.414;2023-08-08T03:29:25;2.42;;;2.22;;
41263;SDS011;26998;48.714;9.414;2023-08-08T03:31:51;2.75;;;2.30;;
41263;SDS011;26998;48.714;9.414;2023-08-08T03:34:18;4.00;;;2.20;;
41263;SDS011;26998;48.714;9.414;2023-08-08T03:36:44;2.40;;;2.17;;
41263;SDS011;26998;48.714;9.414;2023-08-08T03:39:12;3.13;;;1.90;;
41263;SDS011;26998;48.714;9.414;2023-08-08T03:41:39;3.65;;;2.05;;
41263;SDS011;26998;48.714;9.414;2023-08-08T03:44:05;2.50;;;1.95;;
41263;SDS011;26998;48.714;9.414;2023-08-08T03:46:32;3.00;;;1.95;;
41263;SDS011;26998;48.714;9.414;2023-08-08T03:48:58;3.78;;;2.33;;
41263;SDS011;26998;48.714;9.414;2023-08-08T03:51:26;3.70;;;2.55;;
41263;SDS011;26998;48.714;9.414;2023-08-08T03:53:52;4.05;;;2.70;;
41263;SDS011;26998;48.714;9.414;2023-08-08T03:56:20;3.80;;;2.70;;
41263;SDS011;26998;48.714;9.414;2023-08-08T03:58:47;6.22;;;2.70;;
41263;SDS011;26998;48.714;9.414;2023-08-08T04:01:14;4.70;;;2.80;;
41263;SDS011;26998;48.714;9.414;2023-08-08T04:03:40;5.43;;;3.40;;
41263;SDS011;26998;48.714;9.414;2023-08-08T04:06:07;5.30;;;3.17;;
41263;SDS011;26998;48.714;9.414;2023-08-08T04:08:36;3.92;;;2.70;;
41263;SDS011;26998;48.714;9.414;2023-08-08T04:11:03;4.50;;;3.22;;
41263;SDS011;26998;48.714;9.414;2023-08-08T04:13:29;5.35;;;3.33;;
41263;SDS011;26998;48.714;9.414;2023-08-08T04:16:00;5.80;;;3.50;;
41263;SDS011;26998;48.714;9.414;2023-08-08T04:18:28;4.00;;;2.45;;
41263;SDS011;26998;48.714;9.414;2023-08-08T04:20:55;5.93;;;2.70;;
41263;SDS011;26998;48.714;9.414;2023-08-08T04:23:24;3.72;;;2.22;;
41263;SDS011;26998;48.714;9.414;2023-08-08T04:25:51;3.45;;;2.60;;
41263;SDS011;26998;48.714;9.414;2023-08-08T04:28:19;7.18;;;2.80;;
41263;SDS011;26998;48.714;9.414;2023-08-08T04:30:52;4.80;;;3.05;;
41263;SDS011;26998;48.714;9.414;2023-08-08T04:33:22;6.03;;;3.33;;
41263;SDS011;26998;48.714;9.414;2023-08-08T04:35:48;4.07;;;2.90;;
41263;SDS011;26998;48.714;9.414;2023-08-08T04:38:15;6.13;;;2.75;;
41263;SDS011;26998;48.714;9.414;2023-08-08T04:40:41;5.53;;;3.22;;
41263;SDS011;26998;48.714;9.414;2023-08-08T04:43:08;8.60;;;3.00;;
41263;SDS011;26998;48.714;9.414;2023-08-08T04:45:37;9.90;;;4.75;;
41263;SDS011;26998;48.714;9.414;2023-08-08T04:48:04;6.25;;;3.70;;
41263;SDS011;26998;48.714;9.414;2023-08-08T04:50:31;3.85;;;3.40;;
41263;SDS011;26998;48.714;9.414;2023-08-08T04:52:57;4.45;;;3.40;;
41263;SDS011;26998;48.714;9.414;2023-08-08T04:55:25;7.40;;;3.58;;
41263;SDS011;26998;48.714;9.414;2023-08-08T04:57:54;5.18;;;2.97;;
41263;SDS011;26998;48.714;9.414;2023-08-08T05:00:20;3.33;;;2.70;;
41263;SDS011;26998;48.714;9.414;2023-08-08T05:02:48;5.05;;;2.72;;
41263;SDS011;26998;48.714;9.414;2023-08-08T05:05:15;26.80;;;4.50;;
41263;SDS011;26998;48.714;9.414;2023-08-08T05:07:43;6.93;;;3.10;;
41263;SDS011;26998;48.714;9.414;2023-08-08T05:10:11;5.78;;;3.30;;
41263;SDS011;26998;48.714;9.414;2023-08-08T05:12:40;5.28;;;3.40;;
41263;SDS011;26998;48.714;9.414;2023-08-08T05:15:08;5.32;;;3.17;;
41263;SDS011;26998;48.714;9.414;2023-08-08T05:17:35;4.80;;;2.97;;
41263;SDS011;26998;48.714;9.414;2023-08-08T05:20:05;3.20;;;2.80;;
41263;SDS011;26998;48.714;9.414;2023-08-08T05:22:33;6.82;;;3.08;;
41263;SDS011;26998;48.714;9.414;2023-08-08T05:25:01;4.25;;;2.97;;
41263;SDS011;26998;48.714;9.414;2023-08-08T05:27:28;4.85;;;3.20;;
41263;SDS011;26998;48.714;9.414;2023-08-08T05:29:54;5.70;;;3.08;;
41263;SDS011;26998;48.714;9.414;2023-08-08T05:32:23;5.60;;;3.17;;
41263;SDS011;26998;48.714;9.414;2023-08-08T05:34:50;10.27;;;3.47;;
41263;SDS011;26998;48.714;9.414;2023-08-08T05:37:18;7.95;;;3.13;;
41263;SDS011;26998;48.714;9.414;2023-08-08T05:39:46;6.95;;;3.00;;
41263;SDS011;26998;48.714;9.414;2023-08-08T05:42:14;7.65;;;2.72;;
41263;SDS011;26998;48.714;9.414;2023-08-08T05:44:41;6.63;;;3.08;;
41263;SDS011;26998;48.714;9.414;2023-08-08T05:47:08;5.63;;;3.28;;
41263;SDS011;26998;48.714;9.414;2023-08-08T05:49:35;4.95;;;2.38;;
41263;SDS011;26998;48.714;9.414;2023-08-08T05:52:04;4.45;;;2.70;;
41263;SDS011;26998;48.714;9.414;2023-08-08T05:54:32;5.28;;;2.63;;
41263;SDS011;26998;48.714;9.414;2023-08-08T05:56:58;8.23;;;2.50;;
41263;SDS011;26998;48.714;9.414;2023-08-08T05:59:28;6.25;;;2.63;;
41263;SDS011;26998;48.714;9.414;2023-08-08T06:01:58;4.50;;;2.97;;
41263;SDS011;26998;48.714;9.414;2023-08-08T06:04:27;4.90;;;2.53;;
41263;SDS011;26998;48.714;9.414;2023-08-08T06:06:53;6.18;;;2.55;;
41263;SDS011;26998;48.714;9.414;2023-08-08T06:09:22;6.85;;;2.47;;
41263;SDS011;26998;48.714;9.414;2023-08-08T06:11:48;3.97;;;2.20;;
41263;SDS011;26998;48.714;9.414;2023-08-08T06:14:16;3.60;;;2.08;;
41263;SDS011;26998;48.714;9.414;2023-08-08T06:16:43;4.15;;;2.08;;
41263;SDS011;26998;48.714;9.414;2023-08-08T06:19:11;3.55;;;2.10;;
41263;SDS011;26998;48.714;9.414;2023-08-08T06:21:40;2.30;;;2.08;;
41263;SDS011;26998;48.714;9.414;2023-08-08T06:24:07;2.88;;;2.17;;
41263;SDS011;26998;48.714;9.414;2023-08-08T06:26:33;2.65;;;1.58;;
41263;SDS011;26998;48.714;9.414;2023-08-08T06:29:04;2.80;;;1.60;;
41263;SDS011;26998;48.714;9.414;2023-08-08T06:31:48;3.15;;;1.88;;
41263;SDS011;26998;48.714;9.414;2023-08-08T06:34:15;3.63;;;1.88;;
41263;SDS011;26998;48.714;9.414;2023-08-08T06:36:42;5.25;;;1.63;;
41263;SDS011;26998;48.714;9.414;2023-08-08T06:39:10;5.15;;;2.00;;
41263;SDS011;26998;48.714;9.414;2023-08-08T06:41:36;3.60;;;1.80;;
41263;SDS011;26998;48.714;9.414;2023-08-08T06:44:03;6.88;;;1.88;;
41263;SDS011;26998;48.714;9.414;2023-08-08T06:46:31;10.70;;;2.13;;
41263;SDS011;26998;48.714;9.414;2023-08-08T06:48:57;8.02;;;1.67;;
41263;SDS011;26998;48.714;9.414;2023-08-08T06:51:24;4.78;;;2.13;;
41263;SDS011;26998;48.714;9.414;2023-08-08T06:53:51;2.58;;;1.30;;
41263;SDS011;26998;48.714;9.414;2023-08-08T06:56:18;3.42;;;1.52;;
41263;SDS011;26998;48.714;9.414;2023-08-08T06:58:45;1.58;;;1.25;;
41263;SDS011;26998;48.714;9.414;2023-08-08T07:01:12;2.00;;;1.10;;
41263;SDS011;26998;48.714;9.414;2023-08-08T07:03:39;4.47;;;1.67;;
41263;SDS011;26998;48.714;9.414;2023-08-08T07:06:06;3.63;;;1.55;;
41263;SDS011;26998;48.714;9.414;2023-08-08T07:08:33;2.45;;;1.40;;
41263;SDS011;26998;48.714;9.414;2023-08-08T07:11:00;1.50;;;1.40;;
41263;SDS011;26998;48.714;9.414;2023-08-08T07:13:26;3.88;;;1.73;;
41263;SDS011;26998;48.714;9.414;2023-08-08T07:15:53;2.53;;;1.63;;
41263;SDS011;26998;48.714;9.414;2023-08-08T07:18:20;1.55;;;1.33;;
41263;SDS011;26998;48.714;9.414;2023-08-08T07:20:46;1.73;;;1.40;;
41263;SDS011;26998;48.714;9.414;2023-08-08T07:23:13;1.98;;;1.75;;
41263;SDS011;26998;48.714;9.414;2023-08-08T07:25:40;3.05;;;1.55;;
41263;SDS011;26998;48.714;9.414;2023-08-08T07:28:10;2.33;;;1.70;;
41263;SDS011;26998;48.714;9.414;2023-08-08T07:30:36;1.55;;;1.45;;
41263;SDS011;26998;48.714;9.414;2023-08-08T07:33:06;2.72;;;1.48;;
41263;SDS011;26998;48.714;9.414;2023-08-08T07:35:33;2.08;;;1.80;;
41263;SDS011;26998;48.714;9.414;2023-08-08T07:38:02;1.92;;;1.35;;
41263;SDS011;26998;48.714;9.414;2023-08-08T07:40:30;1.67;;;1.30;;
41263;SDS011;26998;48.714;9.414;2023-08-08T07:43:01;1.38;;;1.20;;
41263;SDS011;26998;48.714;9.414;2023-08-08T07:45:29;3.08;;;1.23;;
41263;SDS011;26998;48.714;9.414;2023-08-08T07:48:01;2.13;;;1.50;;
41263;SDS011;26998;48.714;9.414;2023-08-08T07:50:29;1.73;;;1.63;;
41263;SDS011;26998;48.714;9.414;2023-08-08T07:52:55;4.43;;;1.33;;
41263;SDS011;26998;48.714;9.414;2023-08-08T07:55:25;1.65;;;1.55;;
41263;SDS011;26998;48.714;9.414;2023-08-08T07:57:51;2.00;;;1.30;;
41263;SDS011;26998;48.714;9.414;2023-08-08T08:00:19;2.33;;;1.38;;
41263;SDS011;26998;48.714;9.414;2023-08-08T08:02:46;4.88;;;1.70;;
41263;SDS011;26998;48.714;9.414;2023-08-08T08:05:14;6.13;;;1.70;;
41263;SDS011;26998;48.714;9.414;2023-08-08T08:07:41;2.10;;;1.40;;
41263;SDS011;26998;48.714;9.414;2023-08-08T08:10:09;7.40;;;1.75;;
41263;SDS011;26998;48.714;9.414;2023-08-08T08:12:37;1.67;;;1.15;;
41263;SDS011;26998;48.714;9.414;2023-08-08T08:15:04;3.45;;;1.60;;
41263;SDS011;26998;48.714;9.414;2023-08-08T08:17:32;2.45;;;1.38;;
41263;SDS011;26998;48.714;9.414;2023-08-08T08:19:58;2.97;;;1.35;;
41263;SDS011;26998;48.714;9.414;2023-08-08T08:22:26;3.30;;;1.50;;
41263;SDS011;26998;48.714;9.414;2023-08-08T08:24:54;5.15;;;1.80;;
41263;SDS011;26998;48.714;9.414;2023-08-08T08:27:20;4.55;;;1.65;;
41263;SDS011;26998;48.714;9.414;2023-08-08T08:29:47;2.03;;;1.35;;
41263;SDS011;26998;48.714;9.414;2023-08-08T08:32:14;5.05;;;1.55;;
41263;SDS011;26998;48.714;9.414;2023-08-08T08:34:41;2.83;;;1.65;;
41263;SDS011;26998;48.714;9.414;2023-08-08T08:37:11;4.53;;;1.75;;
41263;SDS011;26998;48.714;9.414;2023-08-08T08:39:38;2.55;;;1.17;;
41263;SDS011;26998;48.714;9.414;2023-08-08T08:42:04;3.45;;;1.50;;
41263;SDS011;26998;48.714;9.414;2023-08-08T08:44:33;4.40;;;1.80;;
41263;SDS011;26998;48.714;9.414;2023-08-08T08:47:01;4.93;;;1.55;;
41263;SDS011;26998;48.714;9.414;2023-08-08T08:49:31;2.97;;;1.80;;
41263;SDS011;26998;48.714;9.414;2023-08-08T08:52:03;1.70;;;1.13;;
41263;SDS011;26998;48.714;9.414;2023-08-08T08:54:30;1.90;;;1.30;;
41263;SDS011;26998;48.714;9.414;2023-08-08T08:56:58;7.50;;;1.40;;
41263;SDS011;26998;48.714;9.414;2023-08-08T08:59:26;2.42;;;1.33;;
41263;SDS011;26998;48.714;9.414;2023-08-08T09:01:53;3.65;;;1.70;;
41263;SDS011;26998;48.714;9.414;2023-08-08T09:04:20;3.13;;;2.10;;
41263;SDS011;26998;48.714;9.414;2023-08-08T09:06:51;2.20;;;1.63;;
41263;SDS011;26998;48.714;9.414;2023-08-08T09:09:18;1.92;;;1.52;;
41263;SDS011;26998;48.714;9.414;2023-08-08T09:11:46;4.43;;;1.75;;
41263;SDS011;26998;48.714;9.414;2023-08-08T09:16:46;3.22;;;1.60;;
41263;SDS011;26998;48.714;9.414;2023-08-08T09:19:14;3.90;;;1.55;;
41263;SDS011;26998;48.714;9.414;2023-08-08T09:21:47;2.83;;;1.38;;
41263;SDS011;26998;48.714;9.414;2023-08-08T09:24:14;1.88;;;1.65;;
41263;SDS011;26998;48.714;9.414;2023-08-08T09:26:42;3.28;;;1.63;;
41263;SDS011;26998;48.714;9.414;2023-08-08T09:29:11;2.40;;;1.55;;
41263;SDS011;26998;48.714;9.414;2023-08-08T09:31:39;2.90;;;1.30;;
41263;SDS011;26998;48.714;9.414;2023-08-08T09:34:08;1.98;;;1.30;;
41263;SDS011;26998;48.714;9.414;2023-08-08T09:36:35;3.42;;;1.30;;
41263;SDS011;26998;48.714;9.414;2023-08-08T09:39:01;3.47;;;1.73;;
41263;SDS011;26998;48.714;9.414;2023-08-08T09:41:29;1.58;;;1.35;;
41263;SDS011;26998;48.714;9.414;2023-08-08T09:43:58;3.67;;;1.52;;
41263;SDS011;26998;48.714;9.414;2023-08-08T09:46:25;5.10;;;1.40;;
41263;SDS011;26998;48.714;9.414;2023-08-08T09:48:53;3.10;;;1.52;;
41263;SDS011;26998;48.714;9.414;2023-08-08T09:53:49;5.35;;;1.65;;
41263;SDS011;26998;48.714;9.414;2023-08-08T09:56:16;3.35;;;1.25;;
41263;SDS011;26998;48.714;9.414;2023-08-08T09:58:46;2.20;;;1.30;;
41263;SDS011;26998;48.714;9.414;2023-08-08T10:01:14;2.95;;;1.40;;
41263;SDS011;26998;48.714;9.414;2023-08-08T10:03:41;3.75;;;1.83;;
41263;SDS011;26998;48.714;9.414;2023-08-08T10:06:08;5.80;;;1.52;;
41263;SDS011;26998;48.714;9.414;2023-08-08T10:08:35;1.80;;;1.27;;
41263;SDS011;26998;48.714;9.414;2023-08-08T10:11:02;3.45;;;1.90;;
41263;SDS011;26998;48.714;9.414;2023-08-08T10:13:31;3.00;;;1.30;;
41263;SDS011;26998;48.714;9.414;2023-08-08T10:16:03;3.90;;;1.90;;
41263;SDS011;26998;48.714;9.414;2023-08-08T10:18:33;5.68;;;1.88;;
41263;SDS011;26998;48.714;9.414;2023-08-08T10:21:00;1.55;;;1.38;;
41263;SDS011;26998;48.714;9.414;2023-08-08T10:23:35;2.17;;;1.52;;
41263;SDS011;26998;48.714;9.414;2023-08-08T10:26:17;2.13;;;1.40;;
41263;SDS011;26998;48.714;9.414;2023-08-08T10:28:54;3.22;;;1.42;;
41263;SDS011;26998;48.714;9.414;2023-08-08T10:31:25;5.05;;;1.50;;
41263;SDS011;26998;48.714;9.414;2023-08-08T10:34:02;4.13;;;1.30;;
41263;SDS011;26998;48.714;9.414;2023-08-08T10:36:49;1.55;;;1.25;;
41263;SDS011;26998;48.714;9.414;2023-08-08T10:39:17;3.58;;;1.50;;
41263;SDS011;26998;48.714;9.414;2023-08-08T10:41:45;1.70;;;1.42;;
41263;SDS011;26998;48.714;9.414;2023-08-08T10:44:25;2.10;;;1.20;;
41263;SDS011;26998;48.714;9.414;2023-08-08T10:46:55;1.73;;;1.30;;
41263;SDS011;26998;48.714;9.414;2023-08-08T10:49:25;2.28;;;1.42;;
41263;SDS011;26998;48.714;9.414;2023-08-08T10:51:52;1.58;;;1.20;;
41263;SDS011;26998;48.714;9.414;2023-08-08T10:54:20;2.45;;;1.20;;
41263;SDS011;26998;48.714;9.414;2023-08-08T10:56:54;1.58;;;1.13;;
41263;SDS011;26998;48.714;9.414;2023-08-08T10:59:23;4.35;;;1.48;;
41263;SDS011;26998;48.714;9.414;2023-08-08T11:01:52;2.15;;;1.30;;
41263;SDS011;26998;48.714;9.414;2023-08-08T11:04:19;2.70;;;1.30;;
41263;SDS011;26998;48.714;9.414;2023-08-08T11:06:48;1.35;;;1.15;;
41263;SDS011;26998;48.714;9.414;2023-08-08T11:09:15;3.33;;;1.42;;
41263;SDS011;26998;48.714;9.414;2023-08-08T11:11:43;9.90;;;1.70;;
41263;SDS011;26998;48.714;9.414;2023-08-08T11:14:15;2.45;;;1.27;;
41263;SDS011;26998;48.714;9.414;2023-08-08T11:16:48;3.03;;;1.55;;
41263;SDS011;26998;48.714;9.414;2023-08-08T11:19:17;2.53;;;1.55;;
41263;SDS011;26998;48.714;9.414;2023-08-08T11:21:45;2.40;;;1.60;;
41263;SDS011;26998;48.714;9.414;2023-08-08T11:24:12;7.85;;;1.60;;
41263;SDS011;26998;48.714;9.414;2023-08-08T11:26:40;5.15;;;1.77;;
41263;SDS011;26998;48.714;9.414;2023-08-08T11:29:07;4.18;;;1.90;;
41263;SDS011;26998;48.714;9.414;2023-08-08T11:31:35;3.63;;;1.88;;
41263;SDS011;26998;48.714;9.414;2023-08-08T11:34:02;4.15;;;1.50;;
41263;SDS011;26998;48.714;9.414;2023-08-08T11:36:31;2.15;;;1.38;;
41263;SDS011;26998;48.714;9.414;2023-08-08T11:39:00;1.95;;;1.40;;
41263;SDS011;26998;48.714;9.414;2023-08-08T11:41:29;4.35;;;1.52;;
41263;SDS011;26998;48.714;9.414;2023-08-08T11:43:56;5.40;;;1.55;;
41263;SDS011;26998;48.714;9.414;2023-08-08T11:46:23;3.90;;;1.48;;
41263;SDS011;26998;48.714;9.414;2023-08-08T11:48:49;3.15;;;1.70;;
41263;SDS011;26998;48.714;9.414;2023-08-08T11:51:16;3.17;;;1.65;;
41263;SDS011;26998;48.714;9.414;2023-08-08T11:53:52;1.70;;;1.13;;
41263;SDS011;26998;48.714;9.414;2023-08-08T11:56:19;3.85;;;1.30;;
41263;SDS011;26998;48.714;9.414;2023-08-08T11:58:50;7.13;;;1.85;;
41263;SDS011;26998;48.714;9.414;2023-08-08T12:01:24;4.35;;;1.65;;
41263;SDS011;26998;48.714;9.414;2023-08-08T12:03:54;8.88;;;1.40;;
41263;SDS011;26998;48.714;9.414;2023-08-08T12:06:21;3.40;;;1.42;;
41263;SDS011;26998;48.714;9.414;2023-08-08T12:08:48;3.17;;;1.67;;
41263;SDS011;26998;48.714;9.414;2023-08-08T12:11:15;4.13;;;1.60;;
41263;SDS011;26998;48.714;9.414;2023-08-08T12:13:42;3.25;;;1.30;;
41263;SDS011;26998;48.714;9.414;2023-08-08T12:16:11;2.33;;;1.30;;
41263;SDS011;26998;48.714;9.414;2023-08-08T12:18:43;2.95;;;1.27;;
41263;SDS011;26998;48.714;9.414;2023-08-08T12:21:11;7.82;;;2.10;;
41263;SDS011;26998;48.714;9.414;2023-08-08T12:23:40;3.83;;;1.60;;
41263;SDS011;26998;48.714;9.414;2023-08-08T12:26:16;1.67;;;1.30;;
41263;SDS011;26998;48.714;9.414;2023-08-08T12:28:43;1.52;;;1.20;;
41263;SDS011;26998;48.714;9.414;2023-08-08T12:31:10;2.33;;;1.52;;
41263;SDS011;26998;48.714;9.414;2023-08-08T12:33:36;2.55;;;1.23;;
41263;SDS011;26998;48.714;9.414;2023-08-08T12:36:05;3.50;;;1.17;;
41263;SDS011;26998;48.714;9.414;2023-08-08T12:41:02;2.45;;;1.40;;
41263;SDS011;26998;48.714;9.414;2023-08-08T12:43:28;4.65;;;1.73;;
41263;SDS011;26998;48.714;9.414;2023-08-08T12:45:55;3.65;;;1.10;;
41263;SDS011;26998;48.714;9.414;2023-08-08T12:48:23;3.53;;;1.50;;
41263;SDS011;26998;48.714;9.414;2023-08-08T12:50:51;1.77;;;1.50;;
41263;SDS011;26998;48.714;9.414;2023-08-08T12:53:19;2.60;;;1.30;;
41263;SDS011;26998;48.714;9.414;2023-08-08T12:55:47;4.63;;;1.13;;
41263;SDS011;26998;48.714;9.414;2023-08-08T12:58:13;2.30;;;1.40;;
41263;SDS011;26998;48.714;9.414;2023-08-08T13:00:40;6.82;;;1.45;;
41263;SDS011;26998;48.714;9.414;2023-08-08T13:03:09;1.90;;;1.10;;
41263;SDS011;26998;48.714;9.414;2023-08-08T13:05:37;3.10;;;1.15;;
41263;SDS011;26998;48.714;9.414;2023-08-08T13:08:03;3.53;;;1.30;;
41263;SDS011;26998;48.714;9.414;2023-08-08T13:10:30;3.60;;;1.70;;
41263;SDS011;26998;48.714;9.414;2023-08-08T13:12:58;2.22;;;1.58;;
41263;SDS011;26998;48.714;9.414;2023-08-08T13:15:25;4.63;;;1.50;;
41263;SDS011;26998;48.714;9.414;2023-08-08T13:17:51;2.08;;;1.13;;
41263;SDS011;26998;48.714;9.414;2023-08-08T13:20:19;2.08;;;1.15;;
41263;SDS011;26998;48.714;9.414;2023-08-08T13:22:46;2.38;;;1.67;;
41263;SDS011;26998;48.714;9.414;2023-08-08T13:25:15;2.00;;;1.45;;
41263;SDS011;26998;48.714;9.414;2023-08-08T13:27:42;1.27;;;1.23;;
41263;SDS011;26998;48.714;9.414;2023-08-08T13:30:08;2.45;;;1.48;;
41263;SDS011;26998;48.714;9.414;2023-08-08T13:32:36;1.67;;;1.58;;
41263;SDS011;26998;48.714;9.414;2023-08-08T13:35:03;2.40;;;1.30;;
41263;SDS011;26998;48.714;9.414;2023-08-08T13:37:31;2.70;;;1.60;;
41263;SDS011;26998;48.714;9.414;2023-08-08T13:39:57;2.10;;;1.33;;
41263;SDS011;26998;48.714;9.414;2023-08-08T13:42:23;3.00;;;1.67;;
41263;SDS011;26998;48.714;9.414;2023-08-08T13:44:50;5.15;;;1.60;;
41263;SDS011;26998;48.714;9.414;2023-08-08T13:47:18;6.53;;;1.95;;
41263;SDS011;26998;48.714;9.414;2023-08-08T13:49:44;4.03;;;1.50;;
41263;SDS011;26998;48.714;9.414;2023-08-08T13:52:11;2.70;;;1.52;;
41263;SDS011;26998;48.714;9.414;2023-08-08T13:54:40;2.97;;;1.45;;
41263;SDS011;26998;48.714;9.414;2023-08-08T13:57:07;5.07;;;1.80;;
41263;SDS011;26998;48.714;9.414;2023-08-08T13:59:34;4.07;;;1.70;;
41263;SDS011;26998;48.714;9.414;2023-08-08T14:02:04;3.83;;;1.70;;
41263;SDS011;26998;48.714;9.414;2023-08-08T14:04:31;2.78;;;1.60;;
41263;SDS011;26998;48.714;9.414;2023-08-08T14:06:57;3.45;;;1.52;;
41263;SDS011;26998;48.714;9.414;2023-08-08T14:09:24;3.03;;;1.45;;
41263;SDS011;26998;48.714;9.414;2023-08-08T14:11:52;2.85;;;1.40;;
41263;SDS011;26998;48.714;9.414;2023-08-08T14:14:21;3.53;;;1.58;;
41263;SDS011;26998;48.714;9.414;2023-08-08T14:16:47;2.88;;;1.65;;
41263;SDS011;26998;48.714;9.414;2023-08-08T14:19:14;4.07;;;1.58;;
41263;SDS011;26998;48.714;9.414;2023-08-08T14:21:42;4.72;;;1.67;;
41263;SDS011;26998;48.714;9.414;2023-08-08T14:24:09;1.58;;;1.35;;
41263;SDS011;26998;48.714;9.414;2023-08-08T14:26:36;2.63;;;1.65;;
41263;SDS011;26998;48.714;9.414;2023-08-08T14:29:02;3.53;;;1.50;;
41263;SDS011;26998;48.714;9.414;2023-08-08T14:31:31;4.60;;;1.58;;
41263;SDS011;26998;48.714;9.414;2023-08-08T14:34:05;3.38;;;1.50;;
41263;SDS011;26998;48.714;9.414;2023-08-08T14:36:32;3.05;;;1.50;;
41263;SDS011;26998;48.714;9.414;2023-08-08T14:39:00;2.33;;;1.65;;
41263;SDS011;26998;48.714;9.414;2023-08-08T14:41:26;2.45;;;1.50;;
41263;SDS011;26998;48.714;9.414;2023-08-08T14:43:54;1.65;;;1.40;;
41263;SDS011;26998;48.714;9.414;2023-08-08T14:46:25;3.20;;;1.45;;
41263;SDS011;26998;48.714;9.414;2023-08-08T14:48:51;1.67;;;1.35;;
41263;SDS011;26998;48.714;9.414;2023-08-08T14:51:18;6.88;;;1.67;;
41263;SDS011;26998;48.714;9.414;2023-08-08T14:53:45;2.60;;;1.45;;
41263;SDS011;26998;48.714;9.414;2023-08-08T14:56:11;2.45;;;2.10;;
41263;SDS011;26998;48.714;9.414;2023-08-08T14:58:38;4.40;;;1.40;;
41263;SDS011;26998;48.714;9.414;2023-08-08T15:01:06;1.83;;;1.27;;